sensor_id;sensor_type;location;lat;lon;timestamp;P1;durP1;ratioP1;P2;durP2;ratioP2
76725;SDS011;65651;53.154;17.916;2023-03-01T00:01:17;50.60;;;17.40;;
76725;SDS011;65651;53.154;17.916;2023-03-01T00:03:47;59.20;;;21.60;;
76725;SDS011;65651;53.154;17.916;2023-03-01T00:06:15;47.20;;;17.40;;
76725;SDS011;65651;53.154;17.916;2023-03-01T00:08:43;55.00;;;20.10;;
76725;SDS011;65651;53.154;17.916;2023-03-01T00:11:24;57.70;;;19.40;;
76725;SDS011;65651;53.154;17.916;2023-03-01T00:13:55;57.80;;;21.50;;
76725;SDS011;65651;53.154;17.916;2023-03-01T00:18:57;53.10;;;17.30;;
76725;SDS011;65651;53.154;17.916;2023-03-01T00:21:24;51.50;;;16.60;;
76725;SDS011;65651;53.154;17.916;2023-03-01T00:23:53;48.00;;;15.70;;
76725;SDS011;65651;53.154;17.916;2023-03-01T00:26:21;62.90;;;19.60;;
76725;SDS011;65651;53.154;17.916;2023-03-01T00:28:50;49.80;;;15.70;;
76725;SDS011;65651;53.154;17.916;2023-03-01T00:31:20;57.90;;;19.60;;
76725;SDS011;65651;53.154;17.916;2023-03-01T00:33:54;68.60;;;21.30;;
76725;SDS011;65651;53.154;17.916;2023-03-01T00:36:26;81.30;;;27.70;;
76725;SDS011;65651;53.154;17.916;2023-03-01T00:38:55;66.10;;;25.80;;
76725;SDS011;65651;53.154;17.916;2023-03-01T00:41:23;57.10;;;21.00;;
76725;SDS011;65651;53.154;17.916;2023-03-01T00:43:53;52.30;;;23.30;;
76725;SDS011;65651;53.154;17.916;2023-03-01T00:46:24;59.30;;;23.10;;
76725;SDS011;65651;53.154;17.916;2023-03-01T00:48:54;52.00;;;21.20;;
76725;SDS011;65651;53.154;17.916;2023-03-01T00:51:23;44.80;;;18.00;;
76725;SDS011;65651;53.154;17.916;2023-03-01T00:53:53;62.90;;;23.30;;
76725;SDS011;65651;53.154;17.916;2023-03-01T00:56:26;49.70;;;16.50;;
76725;SDS011;65651;53.154;17.916;2023-03-01T00:58:54;38.50;;;14.60;;
76725;SDS011;65651;53.154;17.916;2023-03-01T01:01:23;51.30;;;21.10;;
76725;SDS011;65651;53.154;17.916;2023-03-01T01:03:55;57.90;;;23.50;;
76725;SDS011;65651;53.154;17.916;2023-03-01T01:06:26;52.00;;;20.30;;
76725;SDS011;65651;53.154;17.916;2023-03-01T01:08:56;22.60;;;8.60;;
76725;SDS011;65651;53.154;17.916;2023-03-01T01:11:25;54.80;;;23.20;;
76725;SDS011;65651;53.154;17.916;2023-03-01T01:13:57;59.90;;;21.10;;
76725;SDS011;65651;53.154;17.916;2023-03-01T01:16:26;62.60;;;23.90;;
76725;SDS011;65651;53.154;17.916;2023-03-01T01:18:55;49.90;;;17.70;;
76725;SDS011;65651;53.154;17.916;2023-03-01T01:21:23;29.70;;;13.40;;
76725;SDS011;65651;53.154;17.916;2023-03-01T01:23:51;47.60;;;17.00;;
76725;SDS011;65651;53.154;17.916;2023-03-01T01:26:23;43.20;;;14.20;;
76725;SDS011;65651;53.154;17.916;2023-03-01T01:28:52;36.10;;;11.90;;
76725;SDS011;65651;53.154;17.916;2023-03-01T01:31:21;50.60;;;20.70;;
76725;SDS011;65651;53.154;17.916;2023-03-01T01:33:52;33.00;;;11.80;;
76725;SDS011;65651;53.154;17.916;2023-03-01T01:36:21;51.40;;;17.90;;
76725;SDS011;65651;53.154;17.916;2023-03-01T01:38:50;48.80;;;16.80;;
76725;SDS011;65651;53.154;17.916;2023-03-01T01:41:18;45.30;;;16.60;;
76725;SDS011;65651;53.154;17.916;2023-03-01T01:54:50;79.80;;;25.80;;
76725;SDS011;65651;53.154;17.916;2023-03-01T01:57:32;83.90;;;28.00;;
76725;SDS011;65651;53.154;17.916;2023-03-01T02:00:07;62.80;;;24.00;;
76725;SDS011;65651;53.154;17.916;2023-03-01T02:02:44;59.20;;;22.30;;
76725;SDS011;65651;53.154;17.916;2023-03-01T02:05:17;61.80;;;22.90;;
76725;SDS011;65651;53.154;17.916;2023-03-01T02:08:07;52.80;;;20.30;;
76725;SDS011;65651;53.154;17.916;2023-03-01T02:10:38;62.10;;;23.80;;
76725;SDS011;65651;53.154;17.916;2023-03-01T02:13:06;65.80;;;24.70;;
76725;SDS011;65651;53.154;17.916;2023-03-01T02:15:34;68.10;;;22.70;;
76725;SDS011;65651;53.154;17.916;2023-03-01T02:18:04;66.80;;;22.50;;
76725;SDS011;65651;53.154;17.916;2023-03-01T02:20:35;58.10;;;20.00;;
76725;SDS011;65651;53.154;17.916;2023-03-01T02:23:22;44.30;;;17.40;;
76725;SDS011;65651;53.154;17.916;2023-03-01T02:28:30;46.20;;;18.20;;
76725;SDS011;65651;53.154;17.916;2023-03-01T02:31:00;42.30;;;15.80;;
76725;SDS011;65651;53.154;17.916;2023-03-01T02:33:48;38.90;;;15.50;;
76725;SDS011;65651;53.154;17.916;2023-03-01T02:36:20;48.10;;;18.60;;
76725;SDS011;65651;53.154;17.916;2023-03-01T02:38:52;42.60;;;16.20;;
76725;SDS011;65651;53.154;17.916;2023-03-01T02:41:25;40.40;;;16.00;;
76725;SDS011;65651;53.154;17.916;2023-03-01T02:43:54;34.90;;;14.20;;
76725;SDS011;65651;53.154;17.916;2023-03-01T02:46:24;46.20;;;17.90;;
76725;SDS011;65651;53.154;17.916;2023-03-01T02:48:53;53.60;;;20.10;;
76725;SDS011;65651;53.154;17.916;2023-03-01T02:54:25;40.50;;;16.10;;
76725;SDS011;65651;53.154;17.916;2023-03-01T02:56:55;51.30;;;21.30;;
76725;SDS011;65651;53.154;17.916;2023-03-01T02:59:28;55.40;;;21.50;;
76725;SDS011;65651;53.154;17.916;2023-03-01T03:01:58;57.20;;;21.80;;
76725;SDS011;65651;53.154;17.916;2023-03-01T03:04:27;53.60;;;23.20;;
76725;SDS011;65651;53.154;17.916;2023-03-01T03:06:58;58.90;;;23.30;;
76725;SDS011;65651;53.154;17.916;2023-03-01T03:09:26;54.60;;;23.10;;
76725;SDS011;65651;53.154;17.916;2023-03-01T03:11:54;58.00;;;21.60;;
76725;SDS011;65651;53.154;17.916;2023-03-01T03:14:22;40.90;;;16.50;;
76725;SDS011;65651;53.154;17.916;2023-03-01T03:16:50;51.40;;;19.40;;
76725;SDS011;65651;53.154;17.916;2023-03-01T03:19:18;59.70;;;23.00;;
76725;SDS011;65651;53.154;17.916;2023-03-01T03:21:46;40.30;;;16.10;;
76725;SDS011;65651;53.154;17.916;2023-03-01T03:24:13;42.70;;;14.90;;
76725;SDS011;65651;53.154;17.916;2023-03-01T03:26:41;42.40;;;16.90;;
76725;SDS011;65651;53.154;17.916;2023-03-01T03:29:08;31.80;;;11.90;;
76725;SDS011;65651;53.154;17.916;2023-03-01T03:31:36;30.60;;;12.40;;
76725;SDS011;65651;53.154;17.916;2023-03-01T03:34:03;23.70;;;8.70;;
76725;SDS011;65651;53.154;17.916;2023-03-01T03:36:31;44.80;;;14.60;;
76725;SDS011;65651;53.154;17.916;2023-03-01T03:38:58;36.60;;;14.20;;
76725;SDS011;65651;53.154;17.916;2023-03-01T03:41:26;39.20;;;15.00;;
76725;SDS011;65651;53.154;17.916;2023-03-01T03:43:54;33.50;;;13.20;;
76725;SDS011;65651;53.154;17.916;2023-03-01T03:46:24;43.30;;;15.50;;
76725;SDS011;65651;53.154;17.916;2023-03-01T03:48:52;33.90;;;13.50;;
76725;SDS011;65651;53.154;17.916;2023-03-01T03:51:19;54.10;;;20.40;;
76725;SDS011;65651;53.154;17.916;2023-03-01T03:53:49;42.50;;;16.10;;
76725;SDS011;65651;53.154;17.916;2023-03-01T03:56:16;41.80;;;16.90;;
76725;SDS011;65651;53.154;17.916;2023-03-01T03:58:44;48.60;;;19.10;;
76725;SDS011;65651;53.154;17.916;2023-03-01T04:01:12;35.60;;;13.70;;
76725;SDS011;65651;53.154;17.916;2023-03-01T04:03:39;30.30;;;10.50;;
76725;SDS011;65651;53.154;17.916;2023-03-01T04:06:08;30.60;;;11.60;;
76725;SDS011;65651;53.154;17.916;2023-03-01T04:08:35;46.10;;;17.20;;
76725;SDS011;65651;53.154;17.916;2023-03-01T04:11:03;35.30;;;15.00;;
76725;SDS011;65651;53.154;17.916;2023-03-01T04:13:53;45.80;;;18.40;;
76725;SDS011;65651;53.154;17.916;2023-03-01T04:16:23;41.80;;;15.80;;
76725;SDS011;65651;53.154;17.916;2023-03-01T04:18:50;38.70;;;16.80;;
76725;SDS011;65651;53.154;17.916;2023-03-01T04:21:20;49.70;;;18.80;;
76725;SDS011;65651;53.154;17.916;2023-03-01T04:23:49;44.70;;;19.20;;
76725;SDS011;65651;53.154;17.916;2023-03-01T04:26:19;32.30;;;12.90;;
76725;SDS011;65651;53.154;17.916;2023-03-01T04:28:46;27.30;;;9.50;;
76725;SDS011;65651;53.154;17.916;2023-03-01T04:31:16;36.80;;;14.90;;
76725;SDS011;65651;53.154;17.916;2023-03-01T04:33:52;22.20;;;8.80;;
76725;SDS011;65651;53.154;17.916;2023-03-01T04:36:22;32.10;;;13.80;;
76725;SDS011;65651;53.154;17.916;2023-03-01T04:38:53;42.50;;;15.10;;
76725;SDS011;65651;53.154;17.916;2023-03-01T04:41:22;48.90;;;20.20;;
76725;SDS011;65651;53.154;17.916;2023-03-01T04:43:50;38.10;;;16.40;;
76725;SDS011;65651;53.154;17.916;2023-03-01T04:46:19;50.50;;;18.80;;
76725;SDS011;65651;53.154;17.916;2023-03-01T04:48:47;29.70;;;13.20;;
76725;SDS011;65651;53.154;17.916;2023-03-01T04:51:15;38.60;;;15.10;;
76725;SDS011;65651;53.154;17.916;2023-03-01T04:53:45;43.70;;;16.40;;
76725;SDS011;65651;53.154;17.916;2023-03-01T04:56:12;28.10;;;10.80;;
76725;SDS011;65651;53.154;17.916;2023-03-01T04:58:41;51.40;;;21.20;;
76725;SDS011;65651;53.154;17.916;2023-03-01T05:01:10;25.50;;;8.70;;
76725;SDS011;65651;53.154;17.916;2023-03-01T05:03:47;52.60;;;21.30;;
76725;SDS011;65651;53.154;17.916;2023-03-01T05:06:16;53.60;;;21.00;;
76725;SDS011;65651;53.154;17.916;2023-03-01T05:08:44;57.80;;;20.90;;
76725;SDS011;65651;53.154;17.916;2023-03-01T05:11:12;31.70;;;12.10;;
76725;SDS011;65651;53.154;17.916;2023-03-01T05:13:40;25.20;;;9.90;;
76725;SDS011;65651;53.154;17.916;2023-03-01T05:16:08;36.60;;;14.40;;
76725;SDS011;65651;53.154;17.916;2023-03-01T05:18:39;34.00;;;12.50;;
76725;SDS011;65651;53.154;17.916;2023-03-01T05:21:08;28.50;;;12.90;;
76725;SDS011;65651;53.154;17.916;2023-03-01T05:23:38;40.80;;;16.90;;
76725;SDS011;65651;53.154;17.916;2023-03-01T05:26:06;36.30;;;15.90;;
76725;SDS011;65651;53.154;17.916;2023-03-01T05:28:34;56.70;;;20.90;;
76725;SDS011;65651;53.154;17.916;2023-03-01T05:31:02;43.60;;;17.50;;
76725;SDS011;65651;53.154;17.916;2023-03-01T05:33:30;52.60;;;18.60;;
76725;SDS011;65651;53.154;17.916;2023-03-01T05:35:59;46.60;;;19.40;;
76725;SDS011;65651;53.154;17.916;2023-03-01T05:38:27;31.90;;;14.20;;
76725;SDS011;65651;53.154;17.916;2023-03-01T05:40:54;36.50;;;13.80;;
76725;SDS011;65651;53.154;17.916;2023-03-01T05:43:26;44.60;;;17.10;;
76725;SDS011;65651;53.154;17.916;2023-03-01T05:45:57;58.80;;;22.60;;
76725;SDS011;65651;53.154;17.916;2023-03-01T05:48:25;49.70;;;18.60;;
76725;SDS011;65651;53.154;17.916;2023-03-01T05:50:58;41.80;;;16.80;;
76725;SDS011;65651;53.154;17.916;2023-03-01T05:53:27;54.80;;;23.50;;
76725;SDS011;65651;53.154;17.916;2023-03-01T05:55:54;45.60;;;17.70;;
76725;SDS011;65651;53.154;17.916;2023-03-01T05:58:22;28.70;;;12.50;;
76725;SDS011;65651;53.154;17.916;2023-03-01T06:00:50;28.00;;;11.10;;
76725;SDS011;65651;53.154;17.916;2023-03-01T06:03:17;31.10;;;12.80;;
76725;SDS011;65651;53.154;17.916;2023-03-01T06:05:45;30.00;;;11.80;;
76725;SDS011;65651;53.154;17.916;2023-03-01T06:08:12;75.70;;;28.50;;
76725;SDS011;65651;53.154;17.916;2023-03-01T06:10:40;50.20;;;21.10;;
76725;SDS011;65651;53.154;17.916;2023-03-01T06:13:08;45.30;;;17.30;;
76725;SDS011;65651;53.154;17.916;2023-03-01T06:15:35;28.50;;;11.20;;
76725;SDS011;65651;53.154;17.916;2023-03-01T06:18:03;31.10;;;12.60;;
76725;SDS011;65651;53.154;17.916;2023-03-01T06:20:31;33.40;;;15.50;;
76725;SDS011;65651;53.154;17.916;2023-03-01T06:22:59;33.40;;;13.80;;
76725;SDS011;65651;53.154;17.916;2023-03-01T06:25:27;25.40;;;11.20;;
76725;SDS011;65651;53.154;17.916;2023-03-01T06:27:55;21.90;;;9.50;;
76725;SDS011;65651;53.154;17.916;2023-03-01T06:30:23;62.30;;;32.30;;
76725;SDS011;65651;53.154;17.916;2023-03-01T06:32:53;63.70;;;24.20;;
76725;SDS011;65651;53.154;17.916;2023-03-01T06:35:28;31.50;;;13.00;;
76725;SDS011;65651;53.154;17.916;2023-03-01T06:38:01;28.20;;;11.00;;
76725;SDS011;65651;53.154;17.916;2023-03-01T06:40:30;31.80;;;13.10;;
76725;SDS011;65651;53.154;17.916;2023-03-01T06:42:58;24.70;;;11.60;;
76725;SDS011;65651;53.154;17.916;2023-03-01T06:45:29;41.60;;;17.80;;
76725;SDS011;65651;53.154;17.916;2023-03-01T06:48:03;29.70;;;13.90;;
76725;SDS011;65651;53.154;17.916;2023-03-01T06:50:32;22.10;;;10.90;;
76725;SDS011;65651;53.154;17.916;2023-03-01T06:53:01;33.60;;;14.40;;
76725;SDS011;65651;53.154;17.916;2023-03-01T06:55:29;38.60;;;14.80;;
76725;SDS011;65651;53.154;17.916;2023-03-01T06:57:58;128.30;;;58.60;;
76725;SDS011;65651;53.154;17.916;2023-03-01T07:00:27;167.20;;;53.70;;
76725;SDS011;65651;53.154;17.916;2023-03-01T07:02:56;134.30;;;38.40;;
76725;SDS011;65651;53.154;17.916;2023-03-01T07:05:26;136.30;;;33.90;;
76725;SDS011;65651;53.154;17.916;2023-03-01T07:07:53;77.50;;;21.10;;
76725;SDS011;65651;53.154;17.916;2023-03-01T07:10:22;125.70;;;41.60;;
76725;SDS011;65651;53.154;17.916;2023-03-01T07:12:53;139.00;;;45.70;;
76725;SDS011;65651;53.154;17.916;2023-03-01T07:15:21;157.60;;;35.10;;
76725;SDS011;65651;53.154;17.916;2023-03-01T07:17:49;100.20;;;29.90;;
76725;SDS011;65651;53.154;17.916;2023-03-01T07:20:18;42.60;;;14.30;;
76725;SDS011;65651;53.154;17.916;2023-03-01T07:22:49;83.40;;;26.50;;
76725;SDS011;65651;53.154;17.916;2023-03-01T07:25:16;82.60;;;26.50;;
76725;SDS011;65651;53.154;17.916;2023-03-01T07:27:48;71.60;;;24.80;;
76725;SDS011;65651;53.154;17.916;2023-03-01T07:30:16;56.00;;;25.10;;
76725;SDS011;65651;53.154;17.916;2023-03-01T07:32:44;47.10;;;20.30;;
76725;SDS011;65651;53.154;17.916;2023-03-01T07:35:12;51.80;;;21.00;;
76725;SDS011;65651;53.154;17.916;2023-03-01T07:37:41;45.40;;;15.60;;
76725;SDS011;65651;53.154;17.916;2023-03-01T07:40:09;56.10;;;22.00;;
76725;SDS011;65651;53.154;17.916;2023-03-01T07:42:37;39.00;;;14.00;;
76725;SDS011;65651;53.154;17.916;2023-03-01T07:45:05;47.40;;;20.40;;
76725;SDS011;65651;53.154;17.916;2023-03-01T07:47:33;40.90;;;18.50;;
76725;SDS011;65651;53.154;17.916;2023-03-01T07:50:00;39.60;;;15.50;;
76725;SDS011;65651;53.154;17.916;2023-03-01T07:52:28;38.60;;;16.00;;
76725;SDS011;65651;53.154;17.916;2023-03-01T07:54:56;41.40;;;16.90;;
76725;SDS011;65651;53.154;17.916;2023-03-01T07:57:24;28.10;;;11.10;;
76725;SDS011;65651;53.154;17.916;2023-03-01T07:59:54;42.30;;;15.80;;
76725;SDS011;65651;53.154;17.916;2023-03-01T08:02:25;35.90;;;14.40;;
76725;SDS011;65651;53.154;17.916;2023-03-01T08:04:52;26.40;;;11.40;;
76725;SDS011;65651;53.154;17.916;2023-03-01T08:07:20;35.60;;;15.00;;
76725;SDS011;65651;53.154;17.916;2023-03-01T08:09:48;35.50;;;14.30;;
76725;SDS011;65651;53.154;17.916;2023-03-01T08:12:15;40.40;;;15.50;;
76725;SDS011;65651;53.154;17.916;2023-03-01T08:14:45;38.70;;;14.30;;
76725;SDS011;65651;53.154;17.916;2023-03-01T08:17:13;40.10;;;16.00;;
76725;SDS011;65651;53.154;17.916;2023-03-01T08:19:42;34.80;;;12.70;;
76725;SDS011;65651;53.154;17.916;2023-03-01T08:22:10;31.00;;;13.20;;
76725;SDS011;65651;53.154;17.916;2023-03-01T08:24:37;39.20;;;15.80;;
76725;SDS011;65651;53.154;17.916;2023-03-01T08:27:06;40.70;;;13.50;;
76725;SDS011;65651;53.154;17.916;2023-03-01T08:29:33;36.20;;;14.50;;
76725;SDS011;65651;53.154;17.916;2023-03-01T08:32:02;33.60;;;15.30;;
76725;SDS011;65651;53.154;17.916;2023-03-01T08:34:31;40.70;;;15.40;;
76725;SDS011;65651;53.154;17.916;2023-03-01T08:36:58;40.40;;;15.30;;
76725;SDS011;65651;53.154;17.916;2023-03-01T08:39:25;46.30;;;17.70;;
76725;SDS011;65651;53.154;17.916;2023-03-01T08:41:53;32.80;;;14.80;;
76725;SDS011;65651;53.154;17.916;2023-03-01T08:44:22;32.60;;;13.10;;
76725;SDS011;65651;53.154;17.916;2023-03-01T08:46:49;34.80;;;14.10;;
76725;SDS011;65651;53.154;17.916;2023-03-01T08:49:21;30.70;;;12.50;;
76725;SDS011;65651;53.154;17.916;2023-03-01T08:51:48;30.80;;;12.00;;
76725;SDS011;65651;53.154;17.916;2023-03-01T08:54:20;30.00;;;11.90;;
76725;SDS011;65651;53.154;17.916;2023-03-01T08:56:48;38.20;;;14.60;;
76725;SDS011;65651;53.154;17.916;2023-03-01T08:59:16;35.50;;;14.80;;
76725;SDS011;65651;53.154;17.916;2023-03-01T09:01:44;33.30;;;12.30;;
76725;SDS011;65651;53.154;17.916;2023-03-01T09:04:12;22.70;;;11.40;;
76725;SDS011;65651;53.154;17.916;2023-03-01T09:06:42;34.90;;;11.60;;
76725;SDS011;65651;53.154;17.916;2023-03-01T09:09:13;25.30;;;10.60;;
76725;SDS011;65651;53.154;17.916;2023-03-01T09:11:43;24.20;;;11.10;;
76725;SDS011;65651;53.154;17.916;2023-03-01T09:14:16;21.00;;;7.60;;
76725;SDS011;65651;53.154;17.916;2023-03-01T09:16:44;26.10;;;11.70;;
76725;SDS011;65651;53.154;17.916;2023-03-01T09:19:12;30.50;;;12.50;;
76725;SDS011;65651;53.154;17.916;2023-03-01T09:21:42;27.40;;;11.70;;
76725;SDS011;65651;53.154;17.916;2023-03-01T09:24:22;26.70;;;10.70;;
76725;SDS011;65651;53.154;17.916;2023-03-01T09:26:52;30.10;;;11.20;;
76725;SDS011;65651;53.154;17.916;2023-03-01T09:29:22;34.30;;;13.30;;
76725;SDS011;65651;53.154;17.916;2023-03-01T09:31:49;31.50;;;10.80;;
76725;SDS011;65651;53.154;17.916;2023-03-01T09:34:17;35.40;;;12.80;;
76725;SDS011;65651;53.154;17.916;2023-03-01T09:36:50;23.40;;;9.50;;
76725;SDS011;65651;53.154;17.916;2023-03-01T09:39:18;29.80;;;12.60;;
76725;SDS011;65651;53.154;17.916;2023-03-01T09:46:59;16.70;;;6.90;;
76725;SDS011;65651;53.154;17.916;2023-03-01T09:49:28;16.30;;;8.40;;
76725;SDS011;65651;53.154;17.916;2023-03-01T09:52:01;22.30;;;10.30;;
76725;SDS011;65651;53.154;17.916;2023-03-01T09:54:39;20.90;;;8.60;;
76725;SDS011;65651;53.154;17.916;2023-03-01T10:08:03;25.10;;;10.40;;
76725;SDS011;65651;53.154;17.916;2023-03-01T10:10:52;19.30;;;8.70;;
76725;SDS011;65651;53.154;17.916;2023-03-01T10:13:36;11.10;;;6.10;;
76725;SDS011;65651;53.154;17.916;2023-03-01T10:16:17;23.70;;;9.00;;
76725;SDS011;65651;53.154;17.916;2023-03-01T10:18:55;18.90;;;8.60;;
76725;SDS011;65651;53.154;17.916;2023-03-01T10:21:27;40.80;;;12.40;;
76725;SDS011;65651;53.154;17.916;2023-03-01T10:24:08;23.20;;;9.90;;
76725;SDS011;65651;53.154;17.916;2023-03-01T10:26:47;24.50;;;10.30;;
76725;SDS011;65651;53.154;17.916;2023-03-01T10:29:24;32.10;;;11.20;;
76725;SDS011;65651;53.154;17.916;2023-03-01T10:32:14;21.60;;;8.50;;
76725;SDS011;65651;53.154;17.916;2023-03-01T10:34:45;39.90;;;13.00;;
76725;SDS011;65651;53.154;17.916;2023-03-01T10:42:46;25.90;;;11.00;;
76725;SDS011;65651;53.154;17.916;2023-03-01T10:48:03;48.10;;;17.40;;
76725;SDS011;65651;53.154;17.916;2023-03-01T10:50:42;24.90;;;11.00;;
76725;SDS011;65651;53.154;17.916;2023-03-01T10:53:22;22.10;;;9.20;;
76725;SDS011;65651;53.154;17.916;2023-03-01T10:55:58;27.00;;;12.50;;
76725;SDS011;65651;53.154;17.916;2023-03-01T10:58:28;20.10;;;9.40;;
76725;SDS011;65651;53.154;17.916;2023-03-01T11:01:24;15.30;;;7.80;;
76725;SDS011;65651;53.154;17.916;2023-03-01T11:03:44;17.60;;;8.10;;
76725;SDS011;65651;53.154;17.916;2023-03-01T11:11:53;21.80;;;10.30;;
76725;SDS011;65651;53.154;17.916;2023-03-01T11:14:17;18.80;;;9.60;;
76725;SDS011;65651;53.154;17.916;2023-03-01T11:16:49;20.50;;;10.20;;
76725;SDS011;65651;53.154;17.916;2023-03-01T11:19:29;17.30;;;8.40;;
76725;SDS011;65651;53.154;17.916;2023-03-01T11:22:03;24.70;;;9.70;;
76725;SDS011;65651;53.154;17.916;2023-03-01T11:24:40;20.90;;;9.40;;
76725;SDS011;65651;53.154;17.916;2023-03-01T11:27:21;13.30;;;7.40;;
76725;SDS011;65651;53.154;17.916;2023-03-01T11:32:40;12.30;;;6.00;;
76725;SDS011;65651;53.154;17.916;2023-03-01T11:35:22;56.70;;;14.80;;
76725;SDS011;65651;53.154;17.916;2023-03-01T11:38:02;19.00;;;7.90;;
76725;SDS011;65651;53.154;17.916;2023-03-01T11:41:31;23.00;;;7.10;;
76725;SDS011;65651;53.154;17.916;2023-03-01T11:52:19;49.80;;;13.60;;
76725;SDS011;65651;53.154;17.916;2023-03-01T12:06:23;17.60;;;8.00;;
76725;SDS011;65651;53.154;17.916;2023-03-01T12:09:02;15.90;;;8.00;;
76725;SDS011;65651;53.154;17.916;2023-03-01T12:12:04;11.30;;;6.90;;
76725;SDS011;65651;53.154;17.916;2023-03-01T12:17:57;13.60;;;6.80;;
76725;SDS011;65651;53.154;17.916;2023-03-01T12:20:44;11.30;;;6.40;;
76725;SDS011;65651;53.154;17.916;2023-03-01T12:32:11;14.20;;;7.70;;
76725;SDS011;65651;53.154;17.916;2023-03-01T12:38:06;15.70;;;7.50;;
76725;SDS011;65651;53.154;17.916;2023-03-01T12:48:46;22.00;;;11.00;;
76725;SDS011;65651;53.154;17.916;2023-03-01T12:51:26;21.20;;;10.60;;
76725;SDS011;65651;53.154;17.916;2023-03-01T12:53:57;20.80;;;11.00;;
76725;SDS011;65651;53.154;17.916;2023-03-01T12:56:28;15.90;;;8.50;;
76725;SDS011;65651;53.154;17.916;2023-03-01T13:20:19;14.00;;;8.20;;
76725;SDS011;65651;53.154;17.916;2023-03-01T13:22:49;17.30;;;8.40;;
76725;SDS011;65651;53.154;17.916;2023-03-01T13:25:28;13.30;;;6.20;;
76725;SDS011;65651;53.154;17.916;2023-03-01T13:31:03;14.30;;;7.00;;
76725;SDS011;65651;53.154;17.916;2023-03-01T13:33:34;13.50;;;5.80;;
76725;SDS011;65651;53.154;17.916;2023-03-01T13:36:08;10.10;;;5.10;;
76725;SDS011;65651;53.154;17.916;2023-03-01T13:38:47;15.00;;;7.40;;
76725;SDS011;65651;53.154;17.916;2023-03-01T13:49:49;16.00;;;7.40;;
76725;SDS011;65651;53.154;17.916;2023-03-01T13:52:42;14.30;;;7.60;;
76725;SDS011;65651;53.154;17.916;2023-03-01T13:57:42;9.90;;;4.80;;
76725;SDS011;65651;53.154;17.916;2023-03-01T14:00:25;13.90;;;6.50;;
76725;SDS011;65651;53.154;17.916;2023-03-01T14:05:56;11.80;;;5.50;;
76725;SDS011;65651;53.154;17.916;2023-03-01T14:08:30;16.40;;;7.70;;
76725;SDS011;65651;53.154;17.916;2023-03-01T14:13:48;17.60;;;8.00;;
76725;SDS011;65651;53.154;17.916;2023-03-01T14:16:32;13.50;;;6.50;;
76725;SDS011;65651;53.154;17.916;2023-03-01T14:21:46;13.00;;;6.40;;
76725;SDS011;65651;53.154;17.916;2023-03-01T14:24:18;21.50;;;11.80;;
76725;SDS011;65651;53.154;17.916;2023-03-01T14:26:51;38.80;;;25.90;;
76725;SDS011;65651;53.154;17.916;2023-03-01T14:29:25;22.00;;;12.00;;
76725;SDS011;65651;53.154;17.916;2023-03-01T14:32:20;19.60;;;9.20;;
76725;SDS011;65651;53.154;17.916;2023-03-01T14:34:51;45.90;;;24.80;;
76725;SDS011;65651;53.154;17.916;2023-03-01T14:37:23;23.10;;;11.60;;
76725;SDS011;65651;53.154;17.916;2023-03-01T14:39:59;15.50;;;8.80;;
76725;SDS011;65651;53.154;17.916;2023-03-01T14:42:30;15.60;;;8.20;;
76725;SDS011;65651;53.154;17.916;2023-03-01T14:45:02;14.40;;;6.60;;
76725;SDS011;65651;53.154;17.916;2023-03-01T14:47:31;21.60;;;9.90;;
76725;SDS011;65651;53.154;17.916;2023-03-01T14:50:03;17.90;;;9.00;;
76725;SDS011;65651;53.154;17.916;2023-03-01T14:52:45;16.90;;;7.70;;
76725;SDS011;65651;53.154;17.916;2023-03-01T14:55:20;18.10;;;8.10;;
76725;SDS011;65651;53.154;17.916;2023-03-01T14:58:13;19.50;;;9.50;;
76725;SDS011;65651;53.154;17.916;2023-03-01T15:00:46;14.10;;;7.40;;
76725;SDS011;65651;53.154;17.916;2023-03-01T15:03:27;17.70;;;8.70;;
76725;SDS011;65651;53.154;17.916;2023-03-01T15:05:57;27.50;;;12.90;;
76725;SDS011;65651;53.154;17.916;2023-03-01T15:08:27;41.20;;;17.60;;
76725;SDS011;65651;53.154;17.916;2023-03-01T15:11:03;54.70;;;27.90;;
76725;SDS011;65651;53.154;17.916;2023-03-01T15:13:33;25.10;;;13.10;;
76725;SDS011;65651;53.154;17.916;2023-03-01T15:16:03;27.10;;;14.40;;
76725;SDS011;65651;53.154;17.916;2023-03-01T15:18:43;39.90;;;20.00;;
76725;SDS011;65651;53.154;17.916;2023-03-01T15:21:19;26.20;;;14.60;;
76725;SDS011;65651;53.154;17.916;2023-03-01T15:23:52;19.00;;;10.70;;
76725;SDS011;65651;53.154;17.916;2023-03-01T15:26:28;28.30;;;13.00;;
76725;SDS011;65651;53.154;17.916;2023-03-01T15:29:02;14.60;;;7.80;;
76725;SDS011;65651;53.154;17.916;2023-03-01T15:31:37;20.10;;;10.60;;
76725;SDS011;65651;53.154;17.916;2023-03-01T15:34:22;16.80;;;9.20;;
76725;SDS011;65651;53.154;17.916;2023-03-01T15:36:54;26.40;;;11.20;;
76725;SDS011;65651;53.154;17.916;2023-03-01T15:41:55;27.10;;;11.90;;
76725;SDS011;65651;53.154;17.916;2023-03-01T15:44:26;72.60;;;24.30;;
76725;SDS011;65651;53.154;17.916;2023-03-01T15:46:57;381.50;;;76.10;;
76725;SDS011;65651;53.154;17.916;2023-03-01T15:52:02;185.90;;;37.50;;
76725;SDS011;65651;53.154;17.916;2023-03-01T15:54:30;133.00;;;26.80;;
76725;SDS011;65651;53.154;17.916;2023-03-01T15:56:57;101.30;;;24.30;;
76725;SDS011;65651;53.154;17.916;2023-03-01T15:59:25;81.70;;;21.70;;
76725;SDS011;65651;53.154;17.916;2023-03-01T16:01:52;73.60;;;21.70;;
76725;SDS011;65651;53.154;17.916;2023-03-01T16:04:20;51.50;;;18.40;;
76725;SDS011;65651;53.154;17.916;2023-03-01T16:06:50;45.20;;;18.10;;
76725;SDS011;65651;53.154;17.916;2023-03-01T16:09:24;47.40;;;16.80;;
76725;SDS011;65651;53.154;17.916;2023-03-01T16:11:53;33.00;;;15.70;;
76725;SDS011;65651;53.154;17.916;2023-03-01T16:14:23;32.30;;;12.50;;
76725;SDS011;65651;53.154;17.916;2023-03-01T16:16:51;33.20;;;12.10;;
76725;SDS011;65651;53.154;17.916;2023-03-01T16:19:19;29.70;;;10.10;;
76725;SDS011;65651;53.154;17.916;2023-03-01T16:21:47;28.60;;;10.10;;
76725;SDS011;65651;53.154;17.916;2023-03-01T16:24:16;27.10;;;9.30;;
76725;SDS011;65651;53.154;17.916;2023-03-01T16:26:44;27.70;;;9.90;;
76725;SDS011;65651;53.154;17.916;2023-03-01T16:29:11;32.40;;;9.70;;
76725;SDS011;65651;53.154;17.916;2023-03-01T16:31:39;28.40;;;9.80;;
76725;SDS011;65651;53.154;17.916;2023-03-01T16:34:06;29.60;;;10.80;;
76725;SDS011;65651;53.154;17.916;2023-03-01T16:36:34;26.60;;;10.80;;
76725;SDS011;65651;53.154;17.916;2023-03-01T16:39:01;24.60;;;11.20;;
76725;SDS011;65651;53.154;17.916;2023-03-01T16:41:30;29.00;;;12.60;;
76725;SDS011;65651;53.154;17.916;2023-03-01T16:43:57;33.40;;;11.80;;
76725;SDS011;65651;53.154;17.916;2023-03-01T16:46:25;29.20;;;11.70;;
76725;SDS011;65651;53.154;17.916;2023-03-01T16:48:55;30.20;;;12.50;;
76725;SDS011;65651;53.154;17.916;2023-03-01T16:51:23;31.60;;;14.20;;
76725;SDS011;65651;53.154;17.916;2023-03-01T16:53:51;33.30;;;13.20;;
76725;SDS011;65651;53.154;17.916;2023-03-01T16:56:19;30.60;;;13.70;;
76725;SDS011;65651;53.154;17.916;2023-03-01T16:58:47;38.70;;;15.90;;